createdAt,value
2018-11-23T00:00:21.816Z,11.73
2018-11-23T00:02:50.976Z,15.00
2018-11-23T00:05:20.009Z,11.97
2018-11-23T00:07:49.176Z,12.80
2018-11-23T00:10:20.682Z,11.43
2018-11-23T00:12:49.525Z,13.85
2018-11-23T00:15:19.360Z,13.85
2018-11-23T00:17:48.545Z,12.15
2018-11-23T00:20:19.942Z,12.78
2018-11-23T00:22:48.665Z,13.23
2018-11-23T00:25:22.427Z,13.58
2018-11-23T00:27:51.634Z,11.97
2018-11-23T00:30:21.860Z,13.43
2018-11-23T00:32:51.073Z,14.45
2018-11-23T00:35:21.397Z,12.78
2018-11-23T00:37:50.594Z,13.70
2018-11-23T00:40:22.530Z,12.13
2018-11-23T00:42:52.465Z,14.33
2018-11-23T00:45:21.340Z,11.65
2018-11-23T00:47:50.761Z,12.30
2018-11-23T00:50:20.578Z,11.90
2018-11-23T00:52:56.953Z,11.83
2018-11-23T00:55:26.528Z,12.47
2018-11-23T00:57:55.276Z,10.68
2018-11-23T01:00:28.123Z,13.28
2018-11-23T01:02:58.350Z,13.25
2018-11-23T01:05:27.292Z,13.43
2018-11-23T01:07:56.622Z,12.87
2018-11-23T01:10:26.457Z,12.93
2018-11-23T01:12:56.021Z,12.58
2018-11-23T01:15:24.758Z,11.85
2018-11-23T01:17:53.584Z,12.10
2018-11-23T01:20:23.757Z,12.03
2018-11-23T01:22:53.029Z,11.53
2018-11-23T01:25:22.553Z,11.75
2018-11-23T01:27:52.307Z,12.93
2018-11-23T01:30:25.556Z,12.28
2018-11-23T01:32:54.249Z,13.72
2018-11-23T01:35:22.953Z,12.58
2018-11-23T01:37:51.620Z,13.65
2018-11-23T01:40:22.346Z,13.55
2018-11-23T01:42:51.287Z,11.63
2018-11-23T01:45:20.728Z,12.60
2018-11-23T01:47:49.379Z,10.82
2018-11-23T01:50:19.644Z,13.00
2018-11-23T01:52:49.039Z,13.50
2018-11-23T01:55:18.685Z,13.32
2018-11-23T01:57:47.584Z,14.18
2018-11-23T02:00:19.265Z,11.70
2018-11-23T02:02:48.564Z,11.28
2018-11-23T02:05:17.907Z,13.32
2018-11-23T02:07:46.557Z,13.68
2018-11-23T02:10:16.391Z,13.00
2018-11-23T02:12:45.090Z,11.68
2018-11-23T02:15:15.506Z,13.70
2018-11-23T02:17:44.482Z,13.20
2018-11-23T02:20:14.700Z,14.43
2018-11-23T02:22:43.420Z,13.40
2018-11-23T02:25:12.155Z,13.40
2018-11-23T02:27:40.884Z,13.28
2018-11-23T02:30:13.540Z,13.05
2018-11-23T02:32:42.648Z,13.43
2018-11-23T02:35:11.514Z,12.82
2018-11-23T02:37:40.446Z,12.90
2018-11-23T02:40:10.321Z,11.75
2018-11-23T02:42:39.368Z,13.15
2018-11-23T02:45:10.133Z,14.33
2018-11-23T02:47:39.692Z,12.18
2018-11-23T02:50:10.752Z,12.35
2018-11-23T02:52:40.208Z,13.78
2018-11-23T02:55:10.001Z,11.83
2018-11-23T02:57:38.696Z,13.60
2018-11-23T03:00:11.153Z,13.30
2018-11-23T03:02:40.085Z,12.95
2018-11-23T03:05:10.274Z,13.30
2018-11-23T03:07:39.071Z,13.15
2018-11-23T03:10:08.913Z,13.97
2018-11-23T03:12:37.619Z,11.18
2018-11-23T03:15:07.476Z,13.18
2018-11-23T03:17:36.160Z,12.05
2018-11-23T03:20:05.539Z,13.70
2018-11-23T03:22:34.736Z,12.47
2018-11-23T03:25:03.420Z,13.58
2018-11-23T03:27:32.992Z,14.50
2018-11-23T03:30:01.655Z,12.90
2018-11-23T03:32:30.876Z,13.08
2018-11-23T03:34:59.658Z,13.62
2018-11-23T03:37:28.401Z,13.22
2018-11-23T03:39:57.048Z,12.15
2018-11-23T03:42:25.777Z,13.22
2018-11-23T03:44:54.683Z,12.98
2018-11-23T03:47:23.406Z,13.53
2018-11-23T03:49:52.114Z,12.98
2018-11-23T03:52:21.381Z,13.35
2018-11-23T03:54:50.080Z,12.60
2018-11-23T03:57:18.724Z,13.13
2018-11-23T03:59:47.401Z,12.53
2018-11-23T04:02:16.064Z,13.03
2018-11-23T04:04:44.781Z,12.43
2018-11-23T04:07:13.492Z,13.18
2018-11-23T04:09:42.254Z,12.68
2018-11-23T04:12:10.909Z,13.62
2018-11-23T04:14:39.603Z,13.07
2018-11-23T04:17:08.293Z,12.88
2018-11-23T04:19:36.984Z,13.98
2018-11-23T04:22:05.912Z,12.55
2018-11-23T04:24:34.612Z,13.43
2018-11-23T04:27:03.295Z,13.72
2018-11-23T04:29:31.991Z,12.78
2018-11-23T04:32:00.635Z,14.00
2018-11-23T04:34:29.336Z,13.72
2018-11-23T04:36:58.188Z,12.67
2018-11-23T04:39:26.881Z,15.65
2018-11-23T04:41:55.580Z,13.22
2018-11-23T04:44:24.257Z,12.25
2018-11-23T04:46:53.574Z,13.90
2018-11-23T04:49:22.355Z,13.53
2018-11-23T04:51:51.050Z,13.30
2018-11-23T04:54:19.752Z,13.50
2018-11-23T04:56:48.446Z,12.47
2018-11-23T04:59:17.785Z,13.45
2018-11-23T05:01:46.443Z,13.25
2018-11-23T05:04:15.129Z,12.95
2018-11-23T05:06:43.900Z,13.30
2018-11-23T05:09:12.576Z,13.68
2018-11-23T05:11:41.945Z,13.93
2018-11-23T05:14:10.669Z,12.65
2018-11-23T05:16:39.421Z,13.60
2018-11-23T05:19:08.116Z,13.57
2018-11-23T05:21:36.814Z,15.10
2018-11-23T05:24:06.285Z,12.47
2018-11-23T05:26:34.957Z,12.98
2018-11-23T05:29:03.643Z,13.15
2018-11-23T05:31:32.384Z,13.70
2018-11-23T05:34:01.088Z,14.68
2018-11-23T05:36:29.801Z,13.60
2018-11-23T05:38:58.440Z,12.95
2018-11-23T05:41:27.137Z,13.45
2018-11-23T05:43:55.853Z,12.85
2018-11-23T05:46:24.567Z,13.90
2018-11-23T05:48:53.895Z,13.83
2018-11-23T05:51:23.301Z,13.72
2018-11-23T05:53:52.540Z,13.50
2018-11-23T05:56:21.833Z,13.45
2018-11-23T05:58:50.484Z,13.00
2018-11-23T06:01:19.784Z,13.58
2018-11-23T06:03:48.503Z,14.63
2018-11-23T06:06:17.182Z,13.70
2018-11-23T06:08:45.844Z,15.10
2018-11-23T06:11:15.115Z,14.15
2018-11-23T06:13:44.810Z,13.13
2018-11-23T06:16:13.473Z,14.28
2018-11-23T06:18:42.193Z,14.90
2018-11-23T06:21:10.934Z,15.98
2018-11-23T06:23:39.765Z,13.38
2018-11-23T06:26:16.616Z,15.70
2018-11-23T06:28:46.011Z,14.68
2018-11-23T06:31:14.668Z,15.18
2018-11-23T06:33:44.809Z,12.65
2018-11-23T06:36:13.504Z,13.15
2018-11-23T06:38:42.228Z,14.40
2018-11-23T06:41:11.735Z,13.18
2018-11-23T06:43:41.188Z,13.53
2018-11-23T06:46:11.716Z,13.55
2018-11-23T06:48:40.420Z,14.58
2018-11-23T06:51:09.248Z,13.60
2018-11-23T06:53:38.192Z,12.28
2018-11-23T06:56:06.984Z,14.05
2018-11-23T06:58:35.679Z,14.38
2018-11-23T07:01:04.563Z,13.75
2018-11-23T07:03:34.125Z,14.50
2018-11-23T07:06:03.376Z,13.77
2018-11-23T07:08:32.393Z,13.53
2018-11-23T07:11:02.246Z,14.07
2018-11-23T07:13:31.680Z,13.43
2018-11-23T07:16:00.382Z,13.13
2018-11-23T07:18:29.359Z,15.00
2018-11-23T07:20:58.146Z,13.80
2018-11-23T07:23:27.516Z,14.43
2018-11-23T07:25:56.237Z,14.58
2018-11-23T07:28:24.913Z,13.53
2018-11-23T07:30:53.685Z,12.65
2018-11-23T07:33:22.341Z,13.72
2018-11-23T07:35:51.637Z,13.05
2018-11-23T07:38:20.299Z,13.85
2018-11-23T07:41:00.193Z,14.13
2018-11-23T07:43:29.482Z,14.17
2018-11-23T07:45:58.165Z,15.58
2018-11-23T07:48:26.840Z,13.37
2018-11-23T07:50:56.115Z,15.15
2018-11-23T07:53:24.789Z,13.90
2018-11-23T07:55:56.442Z,14.63
2018-11-23T07:58:25.125Z,13.03
2018-11-23T08:00:53.808Z,14.83
2018-11-23T08:03:22.473Z,12.20
2018-11-23T08:05:51.179Z,12.67
2018-11-23T08:08:20.637Z,13.93
2018-11-23T08:10:48.469Z,14.50
2018-11-23T08:13:17.115Z,14.13
2018-11-23T08:15:45.807Z,14.25
2018-11-23T08:18:14.493Z,15.47
2018-11-23T08:20:43.159Z,12.90
2018-11-23T08:23:11.828Z,13.25
2018-11-23T08:25:40.508Z,15.00
2018-11-23T08:28:09.165Z,13.77
2018-11-23T08:30:37.854Z,13.60
2018-11-23T08:33:06.557Z,14.00
2018-11-23T08:35:35.209Z,13.25
2018-11-23T08:38:03.897Z,13.00
2018-11-23T08:40:33.245Z,13.50
2018-11-23T08:43:01.996Z,14.80
2018-11-23T08:45:31.448Z,13.60
2018-11-23T08:48:00.951Z,13.60
2018-11-23T08:50:30.661Z,13.62
2018-11-23T08:52:59.572Z,14.47
2018-11-23T08:55:28.619Z,12.60
2018-11-23T08:57:57.296Z,13.40
2018-11-23T09:00:27.262Z,13.80
2018-11-23T09:03:01.687Z,13.47
2018-11-23T09:05:30.460Z,12.47
2018-11-23T09:07:59.366Z,12.00
2018-11-23T09:10:29.687Z,12.85
2018-11-23T09:13:00.083Z,14.65
2018-11-23T09:15:28.759Z,15.03
2018-11-23T09:17:57.449Z,12.85
2018-11-23T09:20:26.719Z,14.78
2018-11-23T09:22:55.893Z,13.70
2018-11-23T09:25:24.950Z,11.50
2018-11-23T09:27:53.678Z,12.00
2018-11-23T09:30:24.564Z,12.53
2018-11-23T09:32:54.111Z,13.57
2018-11-23T09:35:23.069Z,11.93
2018-11-23T09:37:52.160Z,12.68
2018-11-23T09:40:22.203Z,12.00
2018-11-23T09:42:51.177Z,12.23
2018-11-23T09:45:21.304Z,12.28
2018-11-23T09:47:51.170Z,11.22
2018-11-23T09:50:21.201Z,12.43
2018-11-23T09:52:51.212Z,11.93
2018-11-23T09:55:20.668Z,18.57
2018-11-23T09:57:49.343Z,12.18
2018-11-23T10:00:19.490Z,15.25
2018-11-23T10:02:49.161Z,15.80
2018-11-23T10:05:18.281Z,16.35
2018-11-23T10:07:48.676Z,15.47
2018-11-23T10:10:18.205Z,15.53
2018-11-23T10:12:46.909Z,14.40
2018-11-23T10:15:16.890Z,17.30
2018-11-23T10:17:45.563Z,16.42
2018-11-23T10:20:17.660Z,12.50
2018-11-23T10:22:47.465Z,15.00
2018-11-23T10:25:18.308Z,10.28
2018-11-23T10:27:47.251Z,10.45
2018-11-23T10:30:19.170Z,16.82
2018-11-23T10:32:49.871Z,12.10
2018-11-23T10:35:18.589Z,14.07
2018-11-23T10:37:49.476Z,16.95
2018-11-23T10:40:19.644Z,13.98
2018-11-23T10:42:48.345Z,10.78
2018-11-23T10:45:20.850Z,12.07
2018-11-23T10:47:50.873Z,11.48
2018-11-23T10:50:22.164Z,10.93
2018-11-23T10:52:51.623Z,11.55
2018-11-23T10:55:22.810Z,12.50
2018-11-23T10:57:52.504Z,12.87
2018-11-23T11:00:26.452Z,12.43
2018-11-23T11:03:01.602Z,13.53
2018-11-23T11:05:37.045Z,12.00
2018-11-23T11:08:06.375Z,12.28
2018-11-23T11:10:35.107Z,12.28
2018-11-23T11:13:03.877Z,15.18
2018-11-23T11:15:32.606Z,15.90
2018-11-23T11:18:01.275Z,12.07
2018-11-23T11:20:29.982Z,10.08
2018-11-23T11:22:59.440Z,11.50
2018-11-23T11:25:29.957Z,10.40
2018-11-23T11:27:58.620Z,10.60
2018-11-23T11:30:27.312Z,9.20
2018-11-23T11:32:56.068Z,10.08
2018-11-23T11:35:25.492Z,14.50
2018-11-23T11:37:54.169Z,8.68
2018-11-23T11:40:22.876Z,10.95
2018-11-23T11:42:51.573Z,11.60
2018-11-23T11:45:20.287Z,13.20
2018-11-23T11:47:49.164Z,10.65
2018-11-23T11:50:17.855Z,10.13
2018-11-23T11:52:47.871Z,10.50
2018-11-23T11:55:18.597Z,11.18
2018-11-23T11:57:47.910Z,9.25
2018-11-23T12:00:22.748Z,9.05
2018-11-23T12:02:51.453Z,8.98
2018-11-23T12:05:20.202Z,8.78
2018-11-23T12:07:49.000Z,9.68
2018-11-23T12:10:21.241Z,10.60
2018-11-23T12:12:49.932Z,10.10
2018-11-23T12:15:19.198Z,16.93
2018-11-23T12:17:48.475Z,15.90
2018-11-23T12:20:18.512Z,11.75
2018-11-23T12:22:47.659Z,11.12
2018-11-23T12:25:16.592Z,12.68
2018-11-23T12:27:45.271Z,11.50
2018-11-23T12:30:15.934Z,10.30
2018-11-23T12:32:45.679Z,12.70
2018-11-23T12:35:15.369Z,11.78
2018-11-23T12:37:44.110Z,10.15
2018-11-23T12:40:14.776Z,16.02
2018-11-23T12:42:44.096Z,8.90
2018-11-23T12:45:14.491Z,11.87
2018-11-23T12:47:43.218Z,13.38
2018-11-23T12:50:13.940Z,10.13
2018-11-23T12:52:42.637Z,11.07
2018-11-23T12:55:12.318Z,8.93
2018-11-23T12:57:41.416Z,8.87
2018-11-23T13:00:17.316Z,9.28
2018-11-23T13:02:47.244Z,10.90
2018-11-23T13:05:22.888Z,10.70
2018-11-23T13:07:52.519Z,9.00
2018-11-23T13:10:21.648Z,10.45
2018-11-23T13:12:50.898Z,9.78
2018-11-23T13:15:19.027Z,11.33
2018-11-23T13:17:47.703Z,10.50
2018-11-23T13:20:16.793Z,8.35
2018-11-23T13:22:45.718Z,13.50
2018-11-23T13:25:16.663Z,10.88
2018-11-23T13:27:45.357Z,10.72
2018-11-23T13:30:18.865Z,14.40
2018-11-23T13:32:47.528Z,8.08
2018-11-23T13:35:17.347Z,10.08
2018-11-23T13:37:46.059Z,9.68
2018-11-23T13:40:16.456Z,9.90
2018-11-23T13:42:46.142Z,9.38
2018-11-23T13:45:18.856Z,10.13
2018-11-23T13:47:48.138Z,9.93
2018-11-23T13:50:18.869Z,8.40
2018-11-23T13:52:49.476Z,10.17
2018-11-23T13:55:19.564Z,9.58
2018-11-23T13:57:48.266Z,10.40
2018-11-23T14:00:19.551Z,8.63
2018-11-23T14:02:48.536Z,7.70
2018-11-23T14:05:19.377Z,7.87
2018-11-23T14:07:49.595Z,7.47
2018-11-23T14:10:19.716Z,10.33
2018-11-23T14:12:49.201Z,8.20
2018-11-23T14:15:20.163Z,9.80
2018-11-23T14:17:49.651Z,8.25
2018-11-23T14:20:20.296Z,8.10
2018-11-23T14:22:49.044Z,9.55
2018-11-23T14:25:19.718Z,9.13
2018-11-23T14:27:49.604Z,9.58
2018-11-23T14:30:22.427Z,11.80
2018-11-23T14:32:51.308Z,10.63
2018-11-23T14:35:23.593Z,8.70
2018-11-23T14:37:55.533Z,11.50
2018-11-23T14:40:26.415Z,8.40
2018-11-23T14:42:58.141Z,9.80
2018-11-23T14:45:31.736Z,10.43
2018-11-23T14:48:01.927Z,13.83
2018-11-23T14:50:31.764Z,9.95
2018-11-23T14:53:00.954Z,12.65
2018-11-23T14:55:30.487Z,12.98
2018-11-23T14:57:59.532Z,14.00
2018-11-23T15:00:36.037Z,9.03
2018-11-23T15:03:05.822Z,11.68
2018-11-23T15:05:34.827Z,10.08
2018-11-23T15:08:04.243Z,10.40
2018-11-23T15:10:33.935Z,9.83
2018-11-23T15:13:03.520Z,11.28
2018-11-23T15:15:34.317Z,14.05
2018-11-23T15:18:04.221Z,9.73
2018-11-23T15:20:35.331Z,10.48
2018-11-23T15:23:07.671Z,9.55
2018-11-23T15:25:36.376Z,8.93
2018-11-23T15:28:05.808Z,9.30
2018-11-23T15:30:35.711Z,13.83
2018-11-23T15:33:05.006Z,9.70
2018-11-23T15:35:35.156Z,10.30
2018-11-23T15:38:09.964Z,9.27
2018-11-23T15:40:33.508Z,9.85
2018-11-23T15:43:03.651Z,10.20
2018-11-23T15:45:33.852Z,9.65
2018-11-23T15:48:03.117Z,8.75
2018-11-23T15:50:34.189Z,9.70
2018-11-23T15:53:03.635Z,9.63
2018-11-23T15:55:33.811Z,10.70
2018-11-23T15:58:03.953Z,10.23
2018-11-23T16:00:34.960Z,10.68
2018-11-23T16:03:03.885Z,9.63
2018-11-23T16:05:33.178Z,11.57
2018-11-23T16:08:03.397Z,10.55
2018-11-23T16:10:34.321Z,10.05
2018-11-23T16:13:10.739Z,9.63
2018-11-23T16:15:33.220Z,10.70
2018-11-23T16:18:02.488Z,10.65
2018-11-23T16:20:33.246Z,9.70
2018-11-23T16:23:07.488Z,9.20
2018-11-23T16:25:36.208Z,10.50
2018-11-23T16:28:06.315Z,10.20
2018-11-23T16:30:36.411Z,9.80
2018-11-23T16:33:06.727Z,10.23
2018-11-23T16:35:36.527Z,10.30
2018-11-23T16:38:06.976Z,10.37
2018-11-23T16:40:37.073Z,10.28
2018-11-23T16:43:07.552Z,10.25
2018-11-23T16:45:37.521Z,10.93
2018-11-23T16:48:08.050Z,11.20
2018-11-23T16:50:36.735Z,10.30
2018-11-23T16:53:05.822Z,10.13
2018-11-23T16:55:34.614Z,11.05
2018-11-23T16:58:04.673Z,9.25
2018-11-23T17:00:34.828Z,10.38
2018-11-23T17:03:05.111Z,11.12
2018-11-23T17:05:41.646Z,9.95
2018-11-23T17:08:10.863Z,11.40
2018-11-23T17:10:40.207Z,10.40
2018-11-23T17:13:09.043Z,9.43
2018-11-23T17:15:37.774Z,10.35
2018-11-23T17:18:07.030Z,10.58
2018-11-23T17:20:36.263Z,10.10
2018-11-23T17:23:06.065Z,10.05
2018-11-23T17:25:34.790Z,9.80
2018-11-23T17:28:05.788Z,9.78
2018-11-23T17:30:36.521Z,11.03
2018-11-23T17:33:05.411Z,9.55
2018-11-23T17:35:34.143Z,9.60
2018-11-23T17:38:03.193Z,10.08
2018-11-23T17:40:33.825Z,10.40
2018-11-23T17:43:02.788Z,11.83
2018-11-23T17:45:33.755Z,10.05
2018-11-23T17:48:03.465Z,11.47
2018-11-23T17:50:33.671Z,11.30
2018-11-23T17:53:03.650Z,9.58
2018-11-23T17:55:35.138Z,11.28
2018-11-23T17:58:04.448Z,10.00
2018-11-23T18:00:39.142Z,10.28
2018-11-23T18:03:04.540Z,9.40
2018-11-23T18:05:34.986Z,10.40
2018-11-23T18:08:04.420Z,9.90
2018-11-23T18:10:34.121Z,9.68
2018-11-23T18:13:03.425Z,10.90
2018-11-23T18:15:33.334Z,9.35
2018-11-23T18:18:03.739Z,11.10
2018-11-23T18:20:33.542Z,10.60
2018-11-23T18:23:03.259Z,10.75
2018-11-23T18:25:35.151Z,10.77
2018-11-23T18:28:05.392Z,10.45
2018-11-23T18:30:34.712Z,10.65
2018-11-23T18:33:07.787Z,10.58
2018-11-23T18:35:36.924Z,11.05
2018-11-23T18:38:06.498Z,10.32
2018-11-23T18:40:37.215Z,11.18
2018-11-23T18:43:05.169Z,11.20
2018-11-23T18:45:33.829Z,10.32
2018-11-23T18:48:03.695Z,10.78
2018-11-23T18:50:32.388Z,8.83
2018-11-23T18:53:01.148Z,11.43
2018-11-23T18:55:30.429Z,10.03
2018-11-23T18:57:59.111Z,11.95
2018-11-23T19:00:27.828Z,10.18
2018-11-23T19:02:57.162Z,12.97
2018-11-23T19:05:27.296Z,9.50
2018-11-23T19:07:57.105Z,11.00
2018-11-23T19:10:26.324Z,11.95
2018-11-23T19:12:56.405Z,10.65
2018-11-23T19:15:25.932Z,10.88
2018-11-23T19:17:56.282Z,18.42
2018-11-23T19:20:25.656Z,18.95
2018-11-23T19:22:55.183Z,17.60
2018-11-23T19:25:24.646Z,16.77
2018-11-23T19:27:54.059Z,16.17
2018-11-23T19:30:28.642Z,15.80
2018-11-23T19:32:54.696Z,13.10
2018-11-23T19:35:23.541Z,13.60
2018-11-23T19:37:52.275Z,14.93
2018-11-23T19:40:21.016Z,11.48
2018-11-23T19:42:49.742Z,14.25
2018-11-23T19:45:18.396Z,13.32
2018-11-23T19:47:47.868Z,11.88
2018-11-23T19:50:18.452Z,11.73
2018-11-23T19:52:47.874Z,12.78
2018-11-23T19:55:17.602Z,11.90
2018-11-23T19:57:47.528Z,11.68
2018-11-23T20:00:17.508Z,10.90
2018-11-23T20:02:46.177Z,10.85
2018-11-23T20:05:14.940Z,11.20
2018-11-23T20:07:43.968Z,11.33
2018-11-23T20:10:14.323Z,12.95
2018-11-23T20:12:44.080Z,11.38
2018-11-23T20:15:14.987Z,11.60
2018-11-23T20:17:44.265Z,11.22
2018-11-23T20:20:15.220Z,11.88
2018-11-23T20:22:44.074Z,11.83
2018-11-23T20:25:13.885Z,10.50
2018-11-23T20:27:43.285Z,11.85
2018-11-23T20:30:14.177Z,11.45
2018-11-23T20:32:43.844Z,10.80
2018-11-23T20:35:14.747Z,11.48
2018-11-23T20:37:44.172Z,10.63
2018-11-23T20:40:16.875Z,11.28
2018-11-23T20:42:46.195Z,13.40
2018-11-23T20:45:16.575Z,12.90
2018-11-23T20:47:46.935Z,11.13
2018-11-23T20:50:16.794Z,12.35
2018-11-23T20:52:46.385Z,12.00
2018-11-23T20:55:17.076Z,12.43
2018-11-23T20:57:45.889Z,10.95
2018-11-23T21:00:17.828Z,11.40
2018-11-23T21:02:49.503Z,11.43
2018-11-23T21:05:19.832Z,12.70
2018-11-23T21:07:49.634Z,11.70
2018-11-23T21:10:20.812Z,11.48
2018-11-23T21:12:49.939Z,10.68
2018-11-23T21:15:21.723Z,12.20
2018-11-23T21:17:51.113Z,12.00
2018-11-23T21:20:19.839Z,10.88
2018-11-23T21:22:49.111Z,11.70
2018-11-23T21:25:17.816Z,11.93
2018-11-23T21:27:47.699Z,13.05
2018-11-23T21:30:19.769Z,12.10
2018-11-23T21:32:48.965Z,12.18
2018-11-23T21:35:17.731Z,10.23
2018-11-23T21:37:47.663Z,11.57
2018-11-23T21:40:17.371Z,11.25
2018-11-23T21:42:46.100Z,10.80
2018-11-23T21:45:16.786Z,11.20
2018-11-23T21:47:45.476Z,12.50
2018-11-23T21:50:25.003Z,12.10
2018-11-23T21:52:49.647Z,10.85
2018-11-23T21:55:20.411Z,12.05
2018-11-23T21:57:49.342Z,11.28
2018-11-23T22:00:18.153Z,11.18
2018-11-23T22:02:46.896Z,11.60
2018-11-23T22:05:15.588Z,11.68
2018-11-23T22:07:45.337Z,11.43
2018-11-23T22:10:17.305Z,11.90
2018-11-23T22:12:46.597Z,11.33
2018-11-23T22:15:19.513Z,11.68
2018-11-23T22:17:48.768Z,11.97
2018-11-23T22:20:18.557Z,11.53
2018-11-23T22:22:47.750Z,11.40
2018-11-23T22:25:17.525Z,11.55
2018-11-23T22:27:46.308Z,12.15
2018-11-23T22:30:27.138Z,10.98
2018-11-23T22:32:56.376Z,11.47
2018-11-23T22:35:25.936Z,11.57
2018-11-23T22:37:55.684Z,12.80
2018-11-23T22:40:25.050Z,11.57
2018-11-23T22:42:55.977Z,11.68
2018-11-23T22:45:24.625Z,12.80
2018-11-23T22:47:53.286Z,11.88
2018-11-23T22:50:23.125Z,11.83
2018-11-23T22:52:52.423Z,12.27
2018-11-23T22:55:21.324Z,11.38
2018-11-23T22:57:50.844Z,12.65
2018-11-23T23:00:27.925Z,11.50
2018-11-23T23:02:57.474Z,12.88
2018-11-23T23:05:26.221Z,11.97
2018-11-23T23:07:55.011Z,11.10
2018-11-23T23:10:24.447Z,11.83
2018-11-23T23:12:54.220Z,11.73
2018-11-23T23:15:22.947Z,12.70
2018-11-23T23:17:51.608Z,11.95
2018-11-23T23:20:22.063Z,13.20
2018-11-23T23:22:50.828Z,12.58
2018-11-23T23:25:19.511Z,12.82
2018-11-23T23:27:48.228Z,11.43
2018-11-23T23:30:17.788Z,13.38
2018-11-23T23:32:47.304Z,13.00
2018-11-23T23:35:16.804Z,12.25
2018-11-23T23:37:46.151Z,13.18
2018-11-23T23:40:16.813Z,12.18
2018-11-23T23:42:45.771Z,11.30
2018-11-23T23:45:15.443Z,13.98
2018-11-23T23:47:44.129Z,11.83
2018-11-23T23:50:14.012Z,11.38
2018-11-23T23:52:42.742Z,12.85
2018-11-23T23:55:11.723Z,12.95
2018-11-23T23:57:41.522Z,12.55
